sensor_id;sensor_type;location;lat;lon;timestamp;P1;durP1;ratioP1;P2;durP2;ratioP2
12990;SDS011;6560;57.692;11.958;2023-03-01T00:00:48;9.67;;;4.30;;
12990;SDS011;6560;57.692;11.958;2023-03-01T00:03:13;7.63;;;5.23;;
12990;SDS011;6560;57.692;11.958;2023-03-01T00:05:48;12.30;;;6.90;;
12990;SDS011;6560;57.692;11.958;2023-03-01T00:08:13;11.73;;;5.83;;
12990;SDS011;6560;57.692;11.958;2023-03-01T00:10:38;10.13;;;5.60;;
12990;SDS011;6560;57.692;11.958;2023-03-01T00:13:04;9.23;;;5.83;;
12990;SDS011;6560;57.692;11.958;2023-03-01T00:15:30;8.03;;;5.17;;
12990;SDS011;6560;57.692;11.958;2023-03-01T00:17:55;4.50;;;3.80;;
12990;SDS011;6560;57.692;11.958;2023-03-01T00:20:22;8.40;;;4.43;;
12990;SDS011;6560;57.692;11.958;2023-03-01T00:22:47;5.23;;;4.03;;
12990;SDS011;6560;57.692;11.958;2023-03-01T00:25:12;4.93;;;3.43;;
12990;SDS011;6560;57.692;11.958;2023-03-01T00:27:38;3.90;;;3.20;;
12990;SDS011;6560;57.692;11.958;2023-03-01T00:30:03;5.03;;;4.27;;
12990;SDS011;6560;57.692;11.958;2023-03-01T00:32:29;7.70;;;3.47;;
12990;SDS011;6560;57.692;11.958;2023-03-01T00:34:54;5.83;;;3.30;;
12990;SDS011;6560;57.692;11.958;2023-03-01T00:37:26;5.57;;;3.80;;
12990;SDS011;6560;57.692;11.958;2023-03-01T00:39:52;9.63;;;5.47;;
12990;SDS011;6560;57.692;11.958;2023-03-01T00:42:17;5.47;;;3.67;;
12990;SDS011;6560;57.692;11.958;2023-03-01T00:44:42;9.77;;;4.73;;
12990;SDS011;6560;57.692;11.958;2023-03-01T00:47:08;6.60;;;4.53;;
12990;SDS011;6560;57.692;11.958;2023-03-01T00:49:33;5.60;;;4.20;;
12990;SDS011;6560;57.692;11.958;2023-03-01T00:51:59;8.10;;;5.23;;
12990;SDS011;6560;57.692;11.958;2023-03-01T00:54:24;9.73;;;5.10;;
12990;SDS011;6560;57.692;11.958;2023-03-01T00:56:50;6.83;;;4.17;;
12990;SDS011;6560;57.692;11.958;2023-03-01T00:59:15;5.90;;;4.00;;
12990;SDS011;6560;57.692;11.958;2023-03-01T01:01:40;9.27;;;5.17;;
12990;SDS011;6560;57.692;11.958;2023-03-01T01:04:10;10.40;;;4.60;;
12990;SDS011;6560;57.692;11.958;2023-03-01T01:06:37;7.17;;;4.67;;
12990;SDS011;6560;57.692;11.958;2023-03-01T01:09:03;9.17;;;4.93;;
12990;SDS011;6560;57.692;11.958;2023-03-01T01:11:29;8.20;;;4.87;;
12990;SDS011;6560;57.692;11.958;2023-03-01T01:13:55;11.20;;;4.87;;
12990;SDS011;6560;57.692;11.958;2023-03-01T01:16:21;5.77;;;4.77;;
12990;SDS011;6560;57.692;11.958;2023-03-01T01:18:47;6.67;;;5.23;;
12990;SDS011;6560;57.692;11.958;2023-03-01T01:21:14;11.57;;;4.77;;
12990;SDS011;6560;57.692;11.958;2023-03-01T01:23:40;7.90;;;4.70;;
12990;SDS011;6560;57.692;11.958;2023-03-01T01:26:10;9.67;;;5.20;;
12990;SDS011;6560;57.692;11.958;2023-03-01T01:28:36;10.13;;;5.27;;
12990;SDS011;6560;57.692;11.958;2023-03-01T01:31:01;8.20;;;4.80;;
12990;SDS011;6560;57.692;11.958;2023-03-01T01:33:26;8.53;;;5.27;;
12990;SDS011;6560;57.692;11.958;2023-03-01T01:35:52;7.73;;;4.50;;
12990;SDS011;6560;57.692;11.958;2023-03-01T01:38:18;7.17;;;5.00;;
12990;SDS011;6560;57.692;11.958;2023-03-01T01:40:46;7.67;;;5.07;;
12990;SDS011;6560;57.692;11.958;2023-03-01T01:43:23;8.83;;;4.67;;
12990;SDS011;6560;57.692;11.958;2023-03-01T01:45:49;7.20;;;4.70;;
12990;SDS011;6560;57.692;11.958;2023-03-01T01:48:19;10.00;;;5.50;;
12990;SDS011;6560;57.692;11.958;2023-03-01T01:50:45;8.73;;;5.13;;
12990;SDS011;6560;57.692;11.958;2023-03-01T01:53:14;7.57;;;4.40;;
12990;SDS011;6560;57.692;11.958;2023-03-01T01:55:43;10.80;;;5.03;;
12990;SDS011;6560;57.692;11.958;2023-03-01T01:58:11;10.07;;;5.90;;
12990;SDS011;6560;57.692;11.958;2023-03-01T02:00:37;10.23;;;5.80;;
12990;SDS011;6560;57.692;11.958;2023-03-01T02:03:08;13.63;;;5.87;;
12990;SDS011;6560;57.692;11.958;2023-03-01T02:08:19;6.20;;;4.87;;
12990;SDS011;6560;57.692;11.958;2023-03-01T02:10:45;8.23;;;5.67;;
12990;SDS011;6560;57.692;11.958;2023-03-01T02:13:11;9.80;;;5.70;;
12990;SDS011;6560;57.692;11.958;2023-03-01T02:15:37;10.60;;;6.00;;
12990;SDS011;6560;57.692;11.958;2023-03-01T02:18:05;8.67;;;5.60;;
12990;SDS011;6560;57.692;11.958;2023-03-01T02:23:06;9.50;;;5.77;;
12990;SDS011;6560;57.692;11.958;2023-03-01T02:25:36;9.03;;;5.70;;
12990;SDS011;6560;57.692;11.958;2023-03-01T02:30:35;8.73;;;4.87;;
12990;SDS011;6560;57.692;11.958;2023-03-01T02:33:00;8.30;;;4.40;;
12990;SDS011;6560;57.692;11.958;2023-03-01T02:35:28;10.20;;;5.67;;
12990;SDS011;6560;57.692;11.958;2023-03-01T02:37:54;8.60;;;5.07;;
12990;SDS011;6560;57.692;11.958;2023-03-01T02:40:22;6.80;;;5.43;;
12990;SDS011;6560;57.692;11.958;2023-03-01T02:42:52;7.23;;;5.30;;
12990;SDS011;6560;57.692;11.958;2023-03-01T02:45:18;8.27;;;5.57;;
12990;SDS011;6560;57.692;11.958;2023-03-01T02:47:44;8.03;;;5.73;;
12990;SDS011;6560;57.692;11.958;2023-03-01T02:50:34;9.63;;;5.13;;
12990;SDS011;6560;57.692;11.958;2023-03-01T02:55:30;8.80;;;5.27;;
12990;SDS011;6560;57.692;11.958;2023-03-01T02:57:56;8.73;;;5.80;;
12990;SDS011;6560;57.692;11.958;2023-03-01T03:00:26;6.50;;;5.13;;
12990;SDS011;6560;57.692;11.958;2023-03-01T03:02:54;16.27;;;5.53;;
12990;SDS011;6560;57.692;11.958;2023-03-01T03:05:21;10.93;;;5.87;;
12990;SDS011;6560;57.692;11.958;2023-03-01T03:07:47;9.73;;;6.60;;
12990;SDS011;6560;57.692;11.958;2023-03-01T03:10:17;8.83;;;6.10;;
12990;SDS011;6560;57.692;11.958;2023-03-01T03:12:44;9.33;;;5.90;;
12990;SDS011;6560;57.692;11.958;2023-03-01T03:15:13;9.23;;;5.93;;
12990;SDS011;6560;57.692;11.958;2023-03-01T03:17:39;11.83;;;6.83;;
12990;SDS011;6560;57.692;11.958;2023-03-01T03:20:05;8.50;;;5.33;;
12990;SDS011;6560;57.692;11.958;2023-03-01T03:22:35;9.07;;;5.33;;
12990;SDS011;6560;57.692;11.958;2023-03-01T03:25:01;11.57;;;5.87;;
12990;SDS011;6560;57.692;11.958;2023-03-01T03:27:28;11.17;;;5.87;;
12990;SDS011;6560;57.692;11.958;2023-03-01T03:29:53;4.97;;;4.23;;
12990;SDS011;6560;57.692;11.958;2023-03-01T03:32:18;10.07;;;5.37;;
12990;SDS011;6560;57.692;11.958;2023-03-01T03:34:44;8.27;;;4.70;;
12990;SDS011;6560;57.692;11.958;2023-03-01T03:37:09;8.07;;;5.20;;
12990;SDS011;6560;57.692;11.958;2023-03-01T03:39:55;7.23;;;4.97;;
12990;SDS011;6560;57.692;11.958;2023-03-01T03:42:21;7.50;;;5.27;;
12990;SDS011;6560;57.692;11.958;2023-03-01T03:44:47;9.40;;;5.00;;
12990;SDS011;6560;57.692;11.958;2023-03-01T03:47:12;6.97;;;5.17;;
12990;SDS011;6560;57.692;11.958;2023-03-01T03:49:37;8.17;;;5.00;;
12990;SDS011;6560;57.692;11.958;2023-03-01T03:52:03;8.37;;;5.63;;
12990;SDS011;6560;57.692;11.958;2023-03-01T03:54:28;6.50;;;4.80;;
12990;SDS011;6560;57.692;11.958;2023-03-01T03:56:53;8.13;;;4.90;;
12990;SDS011;6560;57.692;11.958;2023-03-01T03:59:19;5.47;;;4.10;;
12990;SDS011;6560;57.692;11.958;2023-03-01T04:01:44;8.27;;;4.90;;
12990;SDS011;6560;57.692;11.958;2023-03-01T04:04:10;7.50;;;5.03;;
12990;SDS011;6560;57.692;11.958;2023-03-01T04:06:35;14.73;;;4.57;;
12990;SDS011;6560;57.692;11.958;2023-03-01T04:09:00;8.13;;;4.83;;
12990;SDS011;6560;57.692;11.958;2023-03-01T04:11:27;7.10;;;4.80;;
12990;SDS011;6560;57.692;11.958;2023-03-01T04:13:55;7.37;;;4.50;;
12990;SDS011;6560;57.692;11.958;2023-03-01T04:16:21;6.93;;;4.30;;
12990;SDS011;6560;57.692;11.958;2023-03-01T04:18:46;10.03;;;4.60;;
12990;SDS011;6560;57.692;11.958;2023-03-01T04:21:12;7.17;;;4.23;;
12990;SDS011;6560;57.692;11.958;2023-03-01T04:23:38;9.33;;;4.40;;
12990;SDS011;6560;57.692;11.958;2023-03-01T04:26:03;6.50;;;4.30;;
12990;SDS011;6560;57.692;11.958;2023-03-01T04:28:30;9.23;;;4.60;;
12990;SDS011;6560;57.692;11.958;2023-03-01T04:30:57;7.83;;;4.27;;
12990;SDS011;6560;57.692;11.958;2023-03-01T04:33:23;7.30;;;4.70;;
12990;SDS011;6560;57.692;11.958;2023-03-01T04:35:49;9.63;;;4.40;;
12990;SDS011;6560;57.692;11.958;2023-03-01T04:38:14;8.27;;;4.70;;
12990;SDS011;6560;57.692;11.958;2023-03-01T04:40:40;8.53;;;4.83;;
12990;SDS011;6560;57.692;11.958;2023-03-01T04:43:08;8.37;;;4.20;;
12990;SDS011;6560;57.692;11.958;2023-03-01T04:45:33;7.70;;;5.17;;
12990;SDS011;6560;57.692;11.958;2023-03-01T04:47:59;8.00;;;5.53;;
12990;SDS011;6560;57.692;11.958;2023-03-01T04:50:24;6.63;;;4.83;;
12990;SDS011;6560;57.692;11.958;2023-03-01T04:52:50;6.10;;;4.30;;
12990;SDS011;6560;57.692;11.958;2023-03-01T04:55:16;9.07;;;5.20;;
12990;SDS011;6560;57.692;11.958;2023-03-01T04:57:41;7.43;;;5.10;;
12990;SDS011;6560;57.692;11.958;2023-03-01T05:00:07;7.67;;;4.53;;
12990;SDS011;6560;57.692;11.958;2023-03-01T05:05:18;6.00;;;4.77;;
12990;SDS011;6560;57.692;11.958;2023-03-01T05:07:44;5.80;;;4.43;;
12990;SDS011;6560;57.692;11.958;2023-03-01T05:10:09;5.87;;;4.37;;
12990;SDS011;6560;57.692;11.958;2023-03-01T05:12:35;6.10;;;3.90;;
12990;SDS011;6560;57.692;11.958;2023-03-01T05:15:02;5.43;;;4.60;;
12990;SDS011;6560;57.692;11.958;2023-03-01T05:17:32;6.40;;;4.60;;
12990;SDS011;6560;57.692;11.958;2023-03-01T05:19:57;5.43;;;4.63;;
12990;SDS011;6560;57.692;11.958;2023-03-01T05:22:24;6.53;;;4.50;;
12990;SDS011;6560;57.692;11.958;2023-03-01T05:24:50;7.83;;;5.23;;
12990;SDS011;6560;57.692;11.958;2023-03-01T05:27:15;8.73;;;5.30;;
12990;SDS011;6560;57.692;11.958;2023-03-01T05:29:40;7.13;;;4.93;;
12990;SDS011;6560;57.692;11.958;2023-03-01T05:32:06;6.33;;;4.50;;
12990;SDS011;6560;57.692;11.958;2023-03-01T05:34:34;7.37;;;4.80;;
12990;SDS011;6560;57.692;11.958;2023-03-01T05:37:00;6.87;;;4.50;;
12990;SDS011;6560;57.692;11.958;2023-03-01T05:39:26;7.33;;;4.37;;
12990;SDS011;6560;57.692;11.958;2023-03-01T05:41:56;8.57;;;5.20;;
12990;SDS011;6560;57.692;11.958;2023-03-01T05:44:21;5.27;;;4.70;;
12990;SDS011;6560;57.692;11.958;2023-03-01T05:46:47;6.23;;;4.70;;
12990;SDS011;6560;57.692;11.958;2023-03-01T05:49:12;6.40;;;4.80;;
12990;SDS011;6560;57.692;11.958;2023-03-01T05:51:38;5.80;;;4.47;;
12990;SDS011;6560;57.692;11.958;2023-03-01T05:54:04;7.47;;;5.23;;
12990;SDS011;6560;57.692;11.958;2023-03-01T05:56:32;7.30;;;4.70;;
12990;SDS011;6560;57.692;11.958;2023-03-01T05:58:57;8.73;;;5.90;;
12990;SDS011;6560;57.692;11.958;2023-03-01T06:01:22;6.20;;;5.10;;
12990;SDS011;6560;57.692;11.958;2023-03-01T06:03:48;9.83;;;6.57;;
12990;SDS011;6560;57.692;11.958;2023-03-01T06:06:13;7.53;;;5.40;;
12990;SDS011;6560;57.692;11.958;2023-03-01T06:08:38;8.30;;;5.20;;
12990;SDS011;6560;57.692;11.958;2023-03-01T06:11:04;9.13;;;5.13;;
12990;SDS011;6560;57.692;11.958;2023-03-01T06:13:30;8.40;;;4.20;;
12990;SDS011;6560;57.692;11.958;2023-03-01T06:15:55;7.00;;;3.93;;
12990;SDS011;6560;57.692;11.958;2023-03-01T06:18:21;5.40;;;4.33;;
12990;SDS011;6560;57.692;11.958;2023-03-01T06:20:52;6.97;;;3.73;;
12990;SDS011;6560;57.692;11.958;2023-03-01T06:23:17;7.60;;;3.83;;
12990;SDS011;6560;57.692;11.958;2023-03-01T06:25:42;7.00;;;4.00;;
12990;SDS011;6560;57.692;11.958;2023-03-01T06:28:08;10.47;;;4.77;;
12990;SDS011;6560;57.692;11.958;2023-03-01T06:30:33;5.93;;;4.60;;
12990;SDS011;6560;57.692;11.958;2023-03-01T06:33:01;12.80;;;7.40;;
12990;SDS011;6560;57.692;11.958;2023-03-01T06:35:28;14.57;;;7.20;;
12990;SDS011;6560;57.692;11.958;2023-03-01T06:37:57;13.97;;;7.00;;
12990;SDS011;6560;57.692;11.958;2023-03-01T06:40:23;11.37;;;5.97;;
12990;SDS011;6560;57.692;11.958;2023-03-01T06:42:49;9.37;;;5.67;;
12990;SDS011;6560;57.692;11.958;2023-03-01T06:45:15;10.83;;;5.60;;
12990;SDS011;6560;57.692;11.958;2023-03-01T06:47:40;6.80;;;4.77;;
12990;SDS011;6560;57.692;11.958;2023-03-01T06:50:06;8.83;;;5.23;;
12990;SDS011;6560;57.692;11.958;2023-03-01T06:52:31;8.17;;;4.47;;
12990;SDS011;6560;57.692;11.958;2023-03-01T06:55:03;7.77;;;4.53;;
12990;SDS011;6560;57.692;11.958;2023-03-01T06:57:29;8.83;;;4.40;;
12990;SDS011;6560;57.692;11.958;2023-03-01T06:59:54;6.67;;;4.33;;
12990;SDS011;6560;57.692;11.958;2023-03-01T07:02:19;8.17;;;5.03;;
12990;SDS011;6560;57.692;11.958;2023-03-01T07:04:45;6.93;;;4.03;;
12990;SDS011;6560;57.692;11.958;2023-03-01T07:07:10;5.07;;;3.20;;
12990;SDS011;6560;57.692;11.958;2023-03-01T07:09:36;6.33;;;3.37;;
12990;SDS011;6560;57.692;11.958;2023-03-01T07:12:01;5.30;;;3.40;;
12990;SDS011;6560;57.692;11.958;2023-03-01T07:14:27;5.30;;;3.03;;
12990;SDS011;6560;57.692;11.958;2023-03-01T07:16:53;11.10;;;3.23;;
12990;SDS011;6560;57.692;11.958;2023-03-01T07:19:18;5.97;;;3.97;;
12990;SDS011;6560;57.692;11.958;2023-03-01T07:21:43;6.80;;;3.20;;
12990;SDS011;6560;57.692;11.958;2023-03-01T07:24:09;7.00;;;3.20;;
12990;SDS011;6560;57.692;11.958;2023-03-01T07:26:34;4.07;;;2.70;;
12990;SDS011;6560;57.692;11.958;2023-03-01T07:29:00;5.83;;;2.90;;
12990;SDS011;6560;57.692;11.958;2023-03-01T07:31:25;4.93;;;3.27;;
12990;SDS011;6560;57.692;11.958;2023-03-01T07:33:53;4.47;;;3.20;;
12990;SDS011;6560;57.692;11.958;2023-03-01T07:36:18;5.17;;;3.13;;
12990;SDS011;6560;57.692;11.958;2023-03-01T07:38:43;5.17;;;2.80;;
12990;SDS011;6560;57.692;11.958;2023-03-01T07:41:09;3.73;;;2.43;;
12990;SDS011;6560;57.692;11.958;2023-03-01T07:43:34;5.63;;;2.90;;
12990;SDS011;6560;57.692;11.958;2023-03-01T07:46:00;4.53;;;2.90;;
12990;SDS011;6560;57.692;11.958;2023-03-01T07:48:26;5.10;;;3.23;;
12990;SDS011;6560;57.692;11.958;2023-03-01T07:50:51;4.23;;;2.90;;
12990;SDS011;6560;57.692;11.958;2023-03-01T07:53:16;12.70;;;3.17;;
12990;SDS011;6560;57.692;11.958;2023-03-01T07:55:42;3.13;;;2.77;;
12990;SDS011;6560;57.692;11.958;2023-03-01T07:58:07;5.27;;;2.70;;
12990;SDS011;6560;57.692;11.958;2023-03-01T08:00:32;6.90;;;2.77;;
12990;SDS011;6560;57.692;11.958;2023-03-01T08:02:58;5.80;;;2.93;;
12990;SDS011;6560;57.692;11.958;2023-03-01T08:05:24;6.20;;;2.90;;
12990;SDS011;6560;57.692;11.958;2023-03-01T08:07:49;4.80;;;2.10;;
12990;SDS011;6560;57.692;11.958;2023-03-01T08:10:15;6.53;;;3.53;;
12990;SDS011;6560;57.692;11.958;2023-03-01T08:12:40;3.27;;;2.20;;
12990;SDS011;6560;57.692;11.958;2023-03-01T08:15:05;6.70;;;2.80;;
12990;SDS011;6560;57.692;11.958;2023-03-01T08:17:31;2.83;;;2.30;;
12990;SDS011;6560;57.692;11.958;2023-03-01T08:19:56;1.70;;;1.60;;
12990;SDS011;6560;57.692;11.958;2023-03-01T08:22:21;5.00;;;2.30;;
12990;SDS011;6560;57.692;11.958;2023-03-01T08:24:47;3.50;;;2.37;;
12990;SDS011;6560;57.692;11.958;2023-03-01T08:27:12;5.37;;;2.77;;
12990;SDS011;6560;57.692;11.958;2023-03-01T08:29:39;4.83;;;1.93;;
12990;SDS011;6560;57.692;11.958;2023-03-01T08:32:04;7.10;;;2.10;;
12990;SDS011;6560;57.692;11.958;2023-03-01T08:34:30;4.23;;;1.77;;
12990;SDS011;6560;57.692;11.958;2023-03-01T08:36:56;4.33;;;2.20;;
12990;SDS011;6560;57.692;11.958;2023-03-01T08:39:21;3.23;;;1.93;;
12990;SDS011;6560;57.692;11.958;2023-03-01T08:41:47;2.87;;;1.90;;
12990;SDS011;6560;57.692;11.958;2023-03-01T08:44:12;4.47;;;1.97;;
12990;SDS011;6560;57.692;11.958;2023-03-01T08:46:39;1.50;;;1.40;;
12990;SDS011;6560;57.692;11.958;2023-03-01T08:49:12;4.77;;;2.07;;
12990;SDS011;6560;57.692;11.958;2023-03-01T08:51:38;2.90;;;1.87;;
12990;SDS011;6560;57.692;11.958;2023-03-01T08:54:04;3.20;;;1.20;;
12990;SDS011;6560;57.692;11.958;2023-03-01T08:56:29;3.07;;;1.77;;
12990;SDS011;6560;57.692;11.958;2023-03-01T08:58:55;2.70;;;1.40;;
12990;SDS011;6560;57.692;11.958;2023-03-01T09:01:20;4.53;;;1.60;;
12990;SDS011;6560;57.692;11.958;2023-03-01T09:03:46;1.43;;;1.03;;
12990;SDS011;6560;57.692;11.958;2023-03-01T09:06:11;1.10;;;0.93;;
12990;SDS011;6560;57.692;11.958;2023-03-01T09:08:38;1.97;;;0.90;;
12990;SDS011;6560;57.692;11.958;2023-03-01T09:11:04;2.40;;;1.30;;
12990;SDS011;6560;57.692;11.958;2023-03-01T09:13:30;3.40;;;1.23;;
12990;SDS011;6560;57.692;11.958;2023-03-01T09:15:56;2.93;;;1.17;;
12990;SDS011;6560;57.692;11.958;2023-03-01T09:18:22;2.90;;;1.17;;
12990;SDS011;6560;57.692;11.958;2023-03-01T09:20:47;2.30;;;0.80;;
12990;SDS011;6560;57.692;11.958;2023-03-01T09:23:12;1.77;;;0.90;;
12990;SDS011;6560;57.692;11.958;2023-03-01T09:25:38;1.27;;;0.80;;
12990;SDS011;6560;57.692;11.958;2023-03-01T09:28:03;1.60;;;0.83;;
12990;SDS011;6560;57.692;11.958;2023-03-01T09:30:28;1.37;;;0.90;;
12990;SDS011;6560;57.692;11.958;2023-03-01T09:32:55;0.87;;;0.70;;
12990;SDS011;6560;57.692;11.958;2023-03-01T09:35:21;1.77;;;0.77;;
12990;SDS011;6560;57.692;11.958;2023-03-01T09:37:47;1.33;;;0.83;;
12990;SDS011;6560;57.692;11.958;2023-03-01T09:40:16;0.97;;;0.70;;
12990;SDS011;6560;57.692;11.958;2023-03-01T09:42:46;0.90;;;0.80;;
12990;SDS011;6560;57.692;11.958;2023-03-01T09:45:17;2.53;;;0.83;;
12990;SDS011;6560;57.692;11.958;2023-03-01T09:47:45;3.27;;;0.73;;
12990;SDS011;6560;57.692;11.958;2023-03-01T09:50:14;1.17;;;0.83;;
12990;SDS011;6560;57.692;11.958;2023-03-01T09:55:11;0.83;;;0.60;;
12990;SDS011;6560;57.692;11.958;2023-03-01T10:05:05;1.17;;;0.60;;
12990;SDS011;6560;57.692;11.958;2023-03-01T10:10:54;2.23;;;0.70;;
12990;SDS011;6560;57.692;11.958;2023-03-01T10:15:38;1.57;;;0.77;;
12990;SDS011;6560;57.692;11.958;2023-03-01T10:18:06;2.50;;;0.87;;
12990;SDS011;6560;57.692;11.958;2023-03-01T10:23:07;4.47;;;1.30;;
12990;SDS011;6560;57.692;11.958;2023-03-01T10:28:03;1.70;;;0.80;;
12990;SDS011;6560;57.692;11.958;2023-03-01T10:30:36;2.23;;;1.23;;
12990;SDS011;6560;57.692;11.958;2023-03-01T10:33:04;2.30;;;1.10;;
12990;SDS011;6560;57.692;11.958;2023-03-01T10:35:31;4.50;;;1.00;;
12990;SDS011;6560;57.692;11.958;2023-03-01T10:40:29;4.13;;;0.73;;
12990;SDS011;6560;57.692;11.958;2023-03-01T10:42:57;2.93;;;0.80;;
12990;SDS011;6560;57.692;11.958;2023-03-01T10:55:58;5.53;;;1.47;;
12990;SDS011;6560;57.692;11.958;2023-03-01T10:58:24;4.90;;;1.13;;
12990;SDS011;6560;57.692;11.958;2023-03-01T11:00:50;3.80;;;0.90;;
12990;SDS011;6560;57.692;11.958;2023-03-01T11:03:19;2.90;;;0.73;;
12990;SDS011;6560;57.692;11.958;2023-03-01T11:06:05;4.37;;;1.10;;
12990;SDS011;6560;57.692;11.958;2023-03-01T11:08:44;2.63;;;0.70;;
12990;SDS011;6560;57.692;11.958;2023-03-01T11:16:44;6.73;;;0.97;;
12990;SDS011;6560;57.692;11.958;2023-03-01T11:21:44;3.07;;;1.37;;
12990;SDS011;6560;57.692;11.958;2023-03-01T11:24:14;3.17;;;0.90;;
12990;SDS011;6560;57.692;11.958;2023-03-01T11:26:41;2.40;;;0.77;;
12990;SDS011;6560;57.692;11.958;2023-03-01T11:29:13;0.70;;;0.50;;
12990;SDS011;6560;57.692;11.958;2023-03-01T11:31:41;6.27;;;1.40;;
12990;SDS011;6560;57.692;11.958;2023-03-01T11:34:20;4.47;;;1.00;;
12990;SDS011;6560;57.692;11.958;2023-03-01T11:36:55;0.87;;;0.50;;
12990;SDS011;6560;57.692;11.958;2023-03-01T11:41:48;1.70;;;0.80;;
12990;SDS011;6560;57.692;11.958;2023-03-01T11:44:23;1.90;;;0.87;;
12990;SDS011;6560;57.692;11.958;2023-03-01T11:56:38;7.77;;;1.37;;
12990;SDS011;6560;57.692;11.958;2023-03-01T11:59:16;3.07;;;0.70;;
12990;SDS011;6560;57.692;11.958;2023-03-01T12:01:48;1.00;;;0.77;;
12990;SDS011;6560;57.692;11.958;2023-03-01T12:14:59;1.60;;;0.50;;
12990;SDS011;6560;57.692;11.958;2023-03-01T12:51:06;3.97;;;0.60;;
12990;SDS011;6560;57.692;11.958;2023-03-01T12:53:36;1.43;;;0.57;;
12990;SDS011;6560;57.692;11.958;2023-03-01T12:56:08;0.90;;;0.40;;
12990;SDS011;6560;57.692;11.958;2023-03-01T12:58:42;1.37;;;0.53;;
12990;SDS011;6560;57.692;11.958;2023-03-01T13:06:44;2.10;;;0.50;;
12990;SDS011;6560;57.692;11.958;2023-03-01T13:11:56;5.10;;;0.87;;
12990;SDS011;6560;57.692;11.958;2023-03-01T13:16:48;3.37;;;0.50;;
12990;SDS011;6560;57.692;11.958;2023-03-01T13:19:17;1.00;;;0.30;;
12990;SDS011;6560;57.692;11.958;2023-03-01T13:21:43;3.77;;;0.97;;
12990;SDS011;6560;57.692;11.958;2023-03-01T13:29:45;1.23;;;0.60;;
12990;SDS011;6560;57.692;11.958;2023-03-01T13:32:21;1.90;;;0.83;;
12990;SDS011;6560;57.692;11.958;2023-03-01T13:34:48;1.30;;;0.50;;
12990;SDS011;6560;57.692;11.958;2023-03-01T13:37:24;2.40;;;0.63;;
12990;SDS011;6560;57.692;11.958;2023-03-01T13:39:51;0.77;;;0.53;;
12990;SDS011;6560;57.692;11.958;2023-03-01T13:45:02;4.63;;;1.00;;
12990;SDS011;6560;57.692;11.958;2023-03-01T13:47:28;4.23;;;1.43;;
12990;SDS011;6560;57.692;11.958;2023-03-01T13:50:00;4.20;;;0.90;;
12990;SDS011;6560;57.692;11.958;2023-03-01T13:54:58;2.93;;;1.10;;
12990;SDS011;6560;57.692;11.958;2023-03-01T13:57:25;5.43;;;0.90;;
12990;SDS011;6560;57.692;11.958;2023-03-01T13:59:51;1.27;;;0.67;;
12990;SDS011;6560;57.692;11.958;2023-03-01T14:02:16;1.70;;;0.70;;
12990;SDS011;6560;57.692;11.958;2023-03-01T14:04:42;6.47;;;0.70;;
12990;SDS011;6560;57.692;11.958;2023-03-01T14:07:26;2.90;;;0.80;;
12990;SDS011;6560;57.692;11.958;2023-03-01T14:09:56;5.97;;;0.87;;
12990;SDS011;6560;57.692;11.958;2023-03-01T14:15:10;1.73;;;0.60;;
12990;SDS011;6560;57.692;11.958;2023-03-01T14:20:19;4.20;;;0.97;;
12990;SDS011;6560;57.692;11.958;2023-03-01T14:22:45;1.30;;;0.50;;
12990;SDS011;6560;57.692;11.958;2023-03-01T14:25:24;2.00;;;1.33;;
12990;SDS011;6560;57.692;11.958;2023-03-01T14:27:51;3.10;;;1.63;;
12990;SDS011;6560;57.692;11.958;2023-03-01T14:30:19;2.27;;;0.83;;
12990;SDS011;6560;57.692;11.958;2023-03-01T14:32:56;3.23;;;0.70;;
12990;SDS011;6560;57.692;11.958;2023-03-01T14:35:23;3.97;;;0.87;;
12990;SDS011;6560;57.692;11.958;2023-03-01T14:37:49;0.83;;;0.60;;
12990;SDS011;6560;57.692;11.958;2023-03-01T14:40:28;1.20;;;0.30;;
12990;SDS011;6560;57.692;11.958;2023-03-01T14:42:54;0.40;;;0.30;;
12990;SDS011;6560;57.692;11.958;2023-03-01T14:45:20;4.93;;;1.43;;
12990;SDS011;6560;57.692;11.958;2023-03-01T14:47:45;3.83;;;1.03;;
12990;SDS011;6560;57.692;11.958;2023-03-01T14:50:32;1.97;;;0.50;;
12990;SDS011;6560;57.692;11.958;2023-03-01T14:52:58;6.67;;;1.10;;
12990;SDS011;6560;57.692;11.958;2023-03-01T14:55:25;1.43;;;0.60;;
12990;SDS011;6560;57.692;11.958;2023-03-01T14:57:51;3.63;;;1.30;;
12990;SDS011;6560;57.692;11.958;2023-03-01T15:00:24;3.10;;;0.80;;
12990;SDS011;6560;57.692;11.958;2023-03-01T15:02:50;4.33;;;0.50;;
12990;SDS011;6560;57.692;11.958;2023-03-01T15:05:18;1.57;;;0.40;;
12990;SDS011;6560;57.692;11.958;2023-03-01T15:07:45;3.17;;;0.57;;
12990;SDS011;6560;57.692;11.958;2023-03-01T15:10:19;0.90;;;0.70;;
12990;SDS011;6560;57.692;11.958;2023-03-01T15:12:45;1.53;;;1.17;;
12990;SDS011;6560;57.692;11.958;2023-03-01T15:17:58;7.23;;;1.10;;
12990;SDS011;6560;57.692;11.958;2023-03-01T15:20:25;1.90;;;0.70;;
12990;SDS011;6560;57.692;11.958;2023-03-01T15:22:51;1.77;;;0.73;;
12990;SDS011;6560;57.692;11.958;2023-03-01T15:25:16;1.37;;;0.80;;
12990;SDS011;6560;57.692;11.958;2023-03-01T15:27:46;6.87;;;1.33;;
12990;SDS011;6560;57.692;11.958;2023-03-01T15:30:20;5.40;;;0.80;;
12990;SDS011;6560;57.692;11.958;2023-03-01T15:32:46;1.13;;;0.60;;
12990;SDS011;6560;57.692;11.958;2023-03-01T15:37:56;3.20;;;1.03;;
12990;SDS011;6560;57.692;11.958;2023-03-01T15:40:29;4.73;;;1.67;;
12990;SDS011;6560;57.692;11.958;2023-03-01T15:43:02;6.90;;;1.43;;
12990;SDS011;6560;57.692;11.958;2023-03-01T15:45:28;3.93;;;1.23;;
12990;SDS011;6560;57.692;11.958;2023-03-01T15:47:55;5.97;;;1.87;;
12990;SDS011;6560;57.692;11.958;2023-03-01T15:50:27;5.77;;;1.33;;
12990;SDS011;6560;57.692;11.958;2023-03-01T15:52:53;4.30;;;1.27;;
12990;SDS011;6560;57.692;11.958;2023-03-01T15:55:20;5.63;;;2.00;;
12990;SDS011;6560;57.692;11.958;2023-03-01T15:57:45;5.83;;;2.27;;
12990;SDS011;6560;57.692;11.958;2023-03-01T16:00:11;1.90;;;0.80;;
12990;SDS011;6560;57.692;11.958;2023-03-01T16:02:38;5.43;;;1.20;;
12990;SDS011;6560;57.692;11.958;2023-03-01T16:05:03;7.97;;;1.13;;
12990;SDS011;6560;57.692;11.958;2023-03-01T16:07:29;6.67;;;2.03;;
12990;SDS011;6560;57.692;11.958;2023-03-01T16:09:56;5.33;;;1.87;;
12990;SDS011;6560;57.692;11.958;2023-03-01T16:12:21;4.30;;;1.03;;
12990;SDS011;6560;57.692;11.958;2023-03-01T16:14:47;3.17;;;1.00;;
12990;SDS011;6560;57.692;11.958;2023-03-01T16:17:13;4.97;;;1.20;;
12990;SDS011;6560;57.692;11.958;2023-03-01T16:19:39;1.60;;;1.00;;
12990;SDS011;6560;57.692;11.958;2023-03-01T16:22:05;3.87;;;1.10;;
12990;SDS011;6560;57.692;11.958;2023-03-01T16:24:30;5.30;;;1.63;;
12990;SDS011;6560;57.692;11.958;2023-03-01T16:26:56;5.33;;;2.00;;
12990;SDS011;6560;57.692;11.958;2023-03-01T16:29:21;2.00;;;1.30;;
12990;SDS011;6560;57.692;11.958;2023-03-01T16:31:46;4.63;;;1.53;;
12990;SDS011;6560;57.692;11.958;2023-03-01T16:34:12;3.30;;;1.13;;
12990;SDS011;6560;57.692;11.958;2023-03-01T16:36:38;6.60;;;1.60;;
12990;SDS011;6560;57.692;11.958;2023-03-01T16:39:03;5.50;;;1.47;;
12990;SDS011;6560;57.692;11.958;2023-03-01T16:41:29;6.87;;;1.67;;
12990;SDS011;6560;57.692;11.958;2023-03-01T16:43:55;4.57;;;1.40;;
12990;SDS011;6560;57.692;11.958;2023-03-01T16:46:24;7.37;;;1.40;;
12990;SDS011;6560;57.692;11.958;2023-03-01T16:48:50;8.73;;;2.27;;
12990;SDS011;6560;57.692;11.958;2023-03-01T16:51:16;7.90;;;3.10;;
12990;SDS011;6560;57.692;11.958;2023-03-01T16:53:48;6.33;;;1.70;;
12990;SDS011;6560;57.692;11.958;2023-03-01T16:56:15;4.23;;;1.30;;
12990;SDS011;6560;57.692;11.958;2023-03-01T16:58:40;4.63;;;1.70;;
12990;SDS011;6560;57.692;11.958;2023-03-01T17:03:31;5.43;;;1.50;;
12990;SDS011;6560;57.692;11.958;2023-03-01T17:05:57;4.00;;;1.37;;
12990;SDS011;6560;57.692;11.958;2023-03-01T17:08:22;7.43;;;1.83;;
12990;SDS011;6560;57.692;11.958;2023-03-01T17:10:47;1.63;;;1.27;;